CCM62 LFLL-LFKJ
Flight info
| Callsign | CCM62 |
|---|---|
| Flight time | 0h 55m |
| Altitude | 27000 |
| Route | ROMAM T43 EVALA A3 RETNO/N0384F190 A3 PERUS G374 XAMAL M623 VAREK |
| Aircraft | A20N/M-SDE2E3FGHIRWXY/LB1 |
Departure
| Time | 2026-04-23 13:19 |
|---|---|
| Airport | Lyon Saint-Exupéry Airport (LFLL) |
Arrival
| Time | 2026-04-23 14:14 |
|---|---|
| Airport | Ajaccio Napoléon Bonaparte airport (LFKJ) |
| Time | Latitude | Longitude | Altitude | Speed | Heading |
|---|---|---|---|---|---|
| 2026-04-23 12:48 | 45.72223 | 5.08185 | 830 ft | 0 kts | 249° |
| 2026-04-23 13:08 | 45.72226 | 5.08197 | 830 ft | 2 kts | 249° |
| 2026-04-23 13:08 | 45.72232 | 5.08216 | 830 ft | 2 kts | 249° |
| 2026-04-23 13:09 | 45.72237 | 5.08236 | 830 ft | 1 kts | 249° |
| 2026-04-23 13:09 | 45.72240 | 5.08249 | 830 ft | 2 kts | 242° |
| 2026-04-23 13:09 | 45.72250 | 5.08265 | 830 ft | 2 kts | 216° |
| 2026-04-23 13:09 | 45.72263 | 5.08275 | 830 ft | 2 kts | 193° |
| 2026-04-23 13:10 | 45.72278 | 5.08277 | 830 ft | 2 kts | 172° |
| 2026-04-23 13:10 | 45.72287 | 5.08274 | 830 ft | 0 kts | 158° |
| 2026-04-23 13:10 | 45.72293 | 5.08270 | 830 ft | 0 kts | 155° |
| 2026-04-23 13:13 | 45.72273 | 5.08300 | 830 ft | 9 kts | 114° |
| 2026-04-23 13:14 | 45.72247 | 5.08407 | 830 ft | 13 kts | 146° |
| 2026-04-23 13:14 | 45.72127 | 5.08438 | 830 ft | 22 kts | 175° |
| 2026-04-23 13:14 | 45.71962 | 5.08460 | 830 ft | 24 kts | 175° |
| 2026-04-23 13:14 | 45.71785 | 5.08481 | 830 ft | 26 kts | 175° |
| 2026-04-23 13:15 | 45.71598 | 5.08503 | 830 ft | 26 kts | 174° |
| 2026-04-23 13:15 | 45.71417 | 5.08526 | 830 ft | 25 kts | 175° |
| 2026-04-23 13:15 | 45.71242 | 5.08544 | 830 ft | 23 kts | 175° |
| 2026-04-23 13:15 | 45.71135 | 5.08635 | 831 ft | 18 kts | 110° |
| 2026-04-23 13:16 | 45.71101 | 5.08793 | 831 ft | 9 kts | 104° |
| 2026-04-23 13:16 | 45.71092 | 5.08845 | 831 ft | 4 kts | 101° |
| 2026-04-23 13:16 | 45.71091 | 5.08856 | 831 ft | 0 kts | 98° |
| 2026-04-23 13:17 | 45.71091 | 5.08860 | 831 ft | 1 kts | 97° |
| 2026-04-23 13:17 | 45.71091 | 5.08909 | 831 ft | 9 kts | 81° |
| 2026-04-23 13:18 | 45.71160 | 5.09010 | 831 ft | 20 kts | 13° |
| 2026-04-23 13:18 | 45.71400 | 5.08993 | 831 ft | 67 kts | 354° |
| 2026-04-23 13:18 | 45.72123 | 5.08903 | 831 ft | 138 kts | 355° |
| 2026-04-23 13:18 | 45.73266 | 5.08763 | 1025 ft | 178 kts | 354° |
| 2026-04-23 13:19 | 45.74475 | 5.08596 | 1766 ft | 178 kts | 354° |
| 2026-04-23 13:19 | 45.75693 | 5.08427 | 2578 ft | 181 kts | 355° |
| 2026-04-23 13:19 | 45.76955 | 5.08257 | 3263 ft | 188 kts | 356° |
| 2026-04-23 13:19 | 45.78304 | 5.08099 | 3707 ft | 204 kts | 357° |
| 2026-04-23 13:20 | 45.79784 | 5.07928 | 4152 ft | 221 kts | 357° |
| 2026-04-23 13:20 | 45.81379 | 5.07747 | 4546 ft | 242 kts | 359° |
| 2026-04-23 13:20 | 45.83040 | 5.08165 | 5187 ft | 248 kts | 31° |
| 2026-04-23 13:20 | 45.84270 | 5.09798 | 6067 ft | 244 kts | 60° |
| 2026-04-23 13:21 | 45.84766 | 5.12056 | 6908 ft | 244 kts | 89° |
| 2026-04-23 13:21 | 45.84415 | 5.14423 | 7714 ft | 248 kts | 117° |
| 2026-04-23 13:21 | 45.83277 | 5.16239 | 8528 ft | 253 kts | 146° |
| 2026-04-23 13:21 | 45.81621 | 5.17093 | 9313 ft | 258 kts | 165° |
| 2026-04-23 13:22 | 45.79877 | 5.17619 | 10083 ft | 261 kts | 165° |
| 2026-04-23 13:22 | 45.78109 | 5.18178 | 10838 ft | 264 kts | 165° |
| 2026-04-23 13:22 | 45.76323 | 5.18754 | 11579 ft | 267 kts | 165° |
| 2026-04-23 13:22 | 45.74518 | 5.19342 | 12310 ft | 270 kts | 165° |
| 2026-04-23 13:23 | 45.72674 | 5.19899 | 13039 ft | 273 kts | 168° |
| 2026-04-23 13:23 | 45.70795 | 5.20166 | 13705 ft | 279 kts | 176° |
| 2026-04-23 13:23 | 45.68819 | 5.20093 | 14273 ft | 288 kts | 180° |
| 2026-04-23 13:23 | 45.66765 | 5.19953 | 14634 ft | 305 kts | 180° |
| 2026-04-23 13:24 | 45.64610 | 5.19817 | 14945 ft | 322 kts | 180° |
| 2026-04-23 13:24 | 45.62309 | 5.19672 | 15250 ft | 338 kts | 180° |
| 2026-04-23 13:24 | 45.59904 | 5.19520 | 15540 ft | 354 kts | 180° |
| 2026-04-23 13:24 | 45.57384 | 5.19361 | 15830 ft | 370 kts | 180° |
| 2026-04-23 13:25 | 45.54752 | 5.19193 | 16103 ft | 384 kts | 180° |
| 2026-04-23 13:25 | 45.52061 | 5.19021 | 16338 ft | 398 kts | 180° |
| 2026-04-23 13:25 | 45.49241 | 5.18841 | 16568 ft | 411 kts | 181° |
| 2026-04-23 13:25 | 45.46343 | 5.18654 | 16800 ft | 424 kts | 181° |
| 2026-04-23 13:26 | 45.43378 | 5.18461 | 17219 ft | 430 kts | 181° |
| 2026-04-23 13:26 | 45.40410 | 5.18267 | 17774 ft | 432 kts | 180° |
| 2026-04-23 13:26 | 45.37392 | 5.18073 | 18260 ft | 436 kts | 180° |
| 2026-04-23 13:26 | 45.34350 | 5.17879 | 18673 ft | 442 kts | 180° |
| 2026-04-23 13:27 | 45.31257 | 5.17680 | 19112 ft | 446 kts | 181° |
| 2026-04-23 13:27 | 45.28145 | 5.17483 | 19547 ft | 451 kts | 181° |
| 2026-04-23 13:27 | 45.25009 | 5.17282 | 19947 ft | 455 kts | 181° |
| 2026-04-23 13:27 | 45.21866 | 5.17082 | 20373 ft | 459 kts | 182° |
| 2026-04-23 13:28 | 45.18677 | 5.16879 | 20781 ft | 463 kts | 182° |
| 2026-04-23 13:28 | 45.15463 | 5.16673 | 21285 ft | 464 kts | 182° |
| 2026-04-23 13:28 | 45.12207 | 5.16491 | 21886 ft | 463 kts | 180° |
| 2026-04-23 13:28 | 45.09022 | 5.16530 | 22445 ft | 463 kts | 178° |
| 2026-04-23 13:29 | 45.05839 | 5.16825 | 23001 ft | 463 kts | 175° |
| 2026-04-23 13:29 | 45.02631 | 5.17182 | 23537 ft | 463 kts | 175° |
| 2026-04-23 13:29 | 44.99404 | 5.17546 | 24060 ft | 464 kts | 175° |
| 2026-04-23 13:29 | 44.96208 | 5.17903 | 24592 ft | 464 kts | 175° |
| 2026-04-23 13:30 | 44.93013 | 5.18258 | 25073 ft | 465 kts | 176° |
| 2026-04-23 13:30 | 44.89779 | 5.18618 | 25531 ft | 466 kts | 176° |
| 2026-04-23 13:30 | 44.86528 | 5.18983 | 25926 ft | 468 kts | 176° |
| 2026-04-23 13:30 | 44.83292 | 5.19345 | 26282 ft | 471 kts | 176° |
| 2026-04-23 13:31 | 44.80036 | 5.19706 | 26639 ft | 473 kts | 176° |
| 2026-04-23 13:31 | 44.76730 | 5.20073 | 26970 ft | 476 kts | 177° |
| 2026-04-23 13:31 | 44.73429 | 5.20435 | 27203 ft | 479 kts | 176° |
| 2026-04-23 13:31 | 44.70110 | 5.20796 | 27209 ft | 480 kts | 176° |
| 2026-04-23 13:32 | 44.66803 | 5.21159 | 27210 ft | 480 kts | 176° |
| 2026-04-23 13:32 | 44.63469 | 5.21528 | 27211 ft | 481 kts | 176° |
| 2026-04-23 13:32 | 44.60144 | 5.21894 | 27207 ft | 481 kts | 177° |
| 2026-04-23 13:32 | 44.56787 | 5.22266 | 27209 ft | 482 kts | 176° |
| 2026-04-23 13:33 | 44.53452 | 5.22635 | 27214 ft | 482 kts | 176° |
| 2026-04-23 13:33 | 44.50200 | 5.23535 | 27185 ft | 485 kts | 159° |
| 2026-04-23 13:33 | 44.47289 | 5.25863 | 27201 ft | 485 kts | 138° |
| 2026-04-23 13:33 | 44.45094 | 5.29393 | 27210 ft | 478 kts | 118° |
| 2026-04-23 13:34 | 44.43814 | 5.33637 | 27224 ft | 469 kts | 102° |
| 2026-04-23 13:34 | 44.42973 | 5.38018 | 27226 ft | 468 kts | 101° |
| 2026-04-23 13:34 | 44.42148 | 5.42373 | 27218 ft | 468 kts | 101° |
| 2026-04-23 13:34 | 44.41281 | 5.46762 | 27215 ft | 467 kts | 102° |
| 2026-04-23 13:35 | 44.40385 | 5.51109 | 27215 ft | 468 kts | 102° |
| 2026-04-23 13:35 | 44.39463 | 5.55481 | 27221 ft | 466 kts | 102° |
| 2026-04-23 13:35 | 44.38434 | 5.59725 | 27220 ft | 466 kts | 107° |
| 2026-04-23 13:35 | 44.37109 | 5.63845 | 27218 ft | 470 kts | 113° |
| 2026-04-23 13:36 | 44.35465 | 5.67842 | 27222 ft | 471 kts | 119° |
| 2026-04-23 13:36 | 44.33688 | 5.71670 | 27223 ft | 470 kts | 120° |
| 2026-04-23 13:36 | 44.31902 | 5.75427 | 27214 ft | 471 kts | 121° |
| 2026-04-23 13:36 | 44.30079 | 5.79250 | 27216 ft | 472 kts | 120° |
| 2026-04-23 13:37 | 44.28280 | 5.83037 | 27219 ft | 471 kts | 120° |
| 2026-04-23 13:37 | 44.26485 | 5.86822 | 27213 ft | 471 kts | 120° |
| 2026-04-23 13:37 | 44.24670 | 5.90655 | 27212 ft | 471 kts | 120° |
| 2026-04-23 13:37 | 44.22875 | 5.94445 | 27211 ft | 471 kts | 120° |
| 2026-04-23 13:38 | 44.21085 | 5.98220 | 27219 ft | 470 kts | 120° |
| 2026-04-23 13:38 | 44.19275 | 6.02033 | 27217 ft | 469 kts | 120° |
| 2026-04-23 13:38 | 44.17477 | 6.05817 | 27215 ft | 470 kts | 120° |
| 2026-04-23 13:38 | 44.15698 | 6.09556 | 27220 ft | 468 kts | 120° |
| 2026-04-23 13:39 | 44.13872 | 6.13302 | 27210 ft | 467 kts | 122° |
| 2026-04-23 13:39 | 44.12015 | 6.16982 | 27206 ft | 469 kts | 122° |
| 2026-04-23 13:39 | 44.10112 | 6.20716 | 27210 ft | 469 kts | 122° |
| 2026-04-23 13:39 | 44.08241 | 6.24385 | 27203 ft | 469 kts | 122° |
| 2026-04-23 13:40 | 44.06355 | 6.28088 | 27209 ft | 469 kts | 122° |
| 2026-04-23 13:40 | 44.04496 | 6.31736 | 27211 ft | 466 kts | 122° |
| 2026-04-23 13:40 | 44.02615 | 6.35431 | 27208 ft | 465 kts | 122° |
| 2026-04-23 13:40 | 44.00769 | 6.39053 | 27205 ft | 465 kts | 122° |
| 2026-04-23 13:41 | 43.98900 | 6.42719 | 27207 ft | 463 kts | 122° |
| 2026-04-23 13:41 | 43.97035 | 6.46368 | 27208 ft | 463 kts | 122° |
| 2026-04-23 13:41 | 43.95171 | 6.50016 | 27211 ft | 462 kts | 122° |
| 2026-04-23 13:41 | 43.93321 | 6.53629 | 27212 ft | 462 kts | 122° |
| 2026-04-23 13:42 | 43.91480 | 6.57224 | 27209 ft | 459 kts | 122° |
| 2026-04-23 13:42 | 43.89629 | 6.60830 | 27204 ft | 458 kts | 122° |
| 2026-04-23 13:42 | 43.87676 | 6.64316 | 27203 ft | 460 kts | 127° |
| 2026-04-23 13:42 | 43.85505 | 6.67547 | 27199 ft | 461 kts | 133° |
| 2026-04-23 13:43 | 43.83109 | 6.70514 | 27202 ft | 463 kts | 138° |
| 2026-04-23 13:43 | 43.80628 | 6.73302 | 27201 ft | 463 kts | 139° |
| 2026-04-23 13:43 | 43.78089 | 6.76104 | 27203 ft | 465 kts | 139° |
| 2026-04-23 13:43 | 43.75576 | 6.78872 | 27204 ft | 465 kts | 139° |
| 2026-04-23 13:44 | 43.73061 | 6.81647 | 27202 ft | 464 kts | 139° |
| 2026-04-23 13:44 | 43.70519 | 6.84455 | 27211 ft | 465 kts | 139° |
| 2026-04-23 13:44 | 43.68019 | 6.87218 | 27210 ft | 464 kts | 139° |
| 2026-04-23 13:44 | 43.65498 | 6.90006 | 27204 ft | 464 kts | 139° |
| 2026-04-23 13:45 | 43.62971 | 6.92797 | 27210 ft | 465 kts | 139° |
| 2026-04-23 13:45 | 43.60480 | 6.95547 | 27207 ft | 464 kts | 139° |
| 2026-04-23 13:45 | 43.57958 | 6.98330 | 27209 ft | 464 kts | 139° |
| 2026-04-23 13:45 | 43.55453 | 7.01088 | 27203 ft | 464 kts | 139° |
| 2026-04-23 13:46 | 43.52920 | 7.03873 | 27203 ft | 465 kts | 139° |
| 2026-04-23 13:46 | 43.50426 | 7.06668 | 27201 ft | 465 kts | 136° |
| 2026-04-23 13:46 | 43.48055 | 7.09710 | 27196 ft | 463 kts | 131° |
| 2026-04-23 13:46 | 43.45912 | 7.12931 | 27200 ft | 462 kts | 127° |
| 2026-04-23 13:47 | 43.43914 | 7.16384 | 27200 ft | 462 kts | 124° |
| 2026-04-23 13:47 | 43.41948 | 7.19901 | 27201 ft | 462 kts | 124° |
| 2026-04-23 13:47 | 43.39999 | 7.23402 | 27195 ft | 461 kts | 124° |
| 2026-04-23 13:47 | 43.38052 | 7.26882 | 27195 ft | 460 kts | 124° |
| 2026-04-23 13:48 | 43.36116 | 7.30325 | 27192 ft | 459 kts | 124° |
| 2026-04-23 13:48 | 43.34099 | 7.33706 | 27188 ft | 460 kts | 128° |
| 2026-04-23 13:48 | 43.31861 | 7.36856 | 27184 ft | 462 kts | 134° |
| 2026-04-23 13:48 | 43.29438 | 7.39702 | 27181 ft | 463 kts | 139° |
| 2026-04-23 13:49 | 43.26855 | 7.42393 | 27185 ft | 464 kts | 140° |
| 2026-04-23 13:49 | 43.24266 | 7.45029 | 27186 ft | 465 kts | 140° |
| 2026-04-23 13:49 | 43.21683 | 7.47651 | 27190 ft | 465 kts | 140° |
| 2026-04-23 13:49 | 43.19080 | 7.50302 | 27191 ft | 464 kts | 140° |
| 2026-04-23 13:50 | 43.16505 | 7.52932 | 27191 ft | 464 kts | 140° |
| 2026-04-23 13:50 | 43.13942 | 7.55546 | 27192 ft | 464 kts | 141° |
| 2026-04-23 13:50 | 43.11225 | 7.57986 | 27192 ft | 467 kts | 147° |
| 2026-04-23 13:50 | 43.08337 | 7.60051 | 27196 ft | 467 kts | 153° |
| 2026-04-23 13:51 | 43.05367 | 7.61706 | 27194 ft | 468 kts | 157° |
| 2026-04-23 13:51 | 43.02276 | 7.63256 | 27195 ft | 469 kts | 158° |
| 2026-04-23 13:51 | 42.99213 | 7.64757 | 27193 ft | 468 kts | 158° |
| 2026-04-23 13:51 | 42.96143 | 7.66259 | 27191 ft | 469 kts | 159° |
| 2026-04-23 13:52 | 42.93109 | 7.67750 | 27194 ft | 468 kts | 158° |
| 2026-04-23 13:52 | 42.90054 | 7.69254 | 27187 ft | 468 kts | 158° |
| 2026-04-23 13:52 | 42.86962 | 7.70780 | 27185 ft | 470 kts | 158° |
| 2026-04-23 13:52 | 42.83881 | 7.72301 | 27191 ft | 471 kts | 158° |
| 2026-04-23 13:53 | 42.80827 | 7.73807 | 27190 ft | 470 kts | 158° |
| 2026-04-23 13:53 | 42.77739 | 7.75331 | 27184 ft | 470 kts | 158° |
| 2026-04-23 13:53 | 42.74691 | 7.76832 | 27179 ft | 472 kts | 158° |
| 2026-04-23 13:53 | 42.71571 | 7.78370 | 27176 ft | 473 kts | 158° |
| 2026-04-23 13:54 | 42.68486 | 7.79887 | 27176 ft | 473 kts | 158° |
| 2026-04-23 13:54 | 42.65432 | 7.81387 | 27176 ft | 473 kts | 158° |
| 2026-04-23 13:54 | 42.62317 | 7.82917 | 27169 ft | 474 kts | 158° |
| 2026-04-23 13:54 | 42.59225 | 7.84434 | 27175 ft | 476 kts | 158° |
| 2026-04-23 13:55 | 42.56115 | 7.85957 | 27169 ft | 476 kts | 158° |
| 2026-04-23 13:55 | 42.53016 | 7.87472 | 27120 ft | 475 kts | 159° |
| 2026-04-23 13:55 | 42.49946 | 7.88969 | 26468 ft | 467 kts | 158° |
| 2026-04-23 13:55 | 42.46890 | 7.90457 | 24985 ft | 471 kts | 158° |
| 2026-04-23 13:56 | 42.43808 | 7.91958 | 22974 ft | 480 kts | 158° |
| 2026-04-23 13:56 | 42.40698 | 7.93476 | 21279 ft | 477 kts | 158° |
| 2026-04-23 13:56 | 42.37669 | 7.94950 | 20537 ft | 463 kts | 158° |
| 2026-04-23 13:56 | 42.34667 | 7.96438 | 19976 ft | 459 kts | 156° |
| 2026-04-23 13:57 | 42.31802 | 7.98324 | 19494 ft | 453 kts | 147° |
| 2026-04-23 13:57 | 42.29221 | 8.00656 | 18925 ft | 448 kts | 140° |
| 2026-04-23 13:57 | 42.26868 | 8.03371 | 18249 ft | 443 kts | 135° |
| 2026-04-23 13:57 | 42.24629 | 8.06128 | 17619 ft | 438 kts | 135° |
| 2026-04-23 13:58 | 42.22406 | 8.08887 | 17003 ft | 433 kts | 134° |
| 2026-04-23 13:58 | 42.20203 | 8.11615 | 16393 ft | 428 kts | 134° |
| 2026-04-23 13:58 | 42.18008 | 8.14319 | 15774 ft | 424 kts | 134° |
| 2026-04-23 13:58 | 42.15849 | 8.16966 | 15189 ft | 419 kts | 134° |
| 2026-04-23 13:59 | 42.13705 | 8.19590 | 14561 ft | 415 kts | 134° |
| 2026-04-23 13:59 | 42.11587 | 8.22175 | 13970 ft | 410 kts | 134° |
| 2026-04-23 13:59 | 42.09501 | 8.24718 | 13358 ft | 406 kts | 134° |
| 2026-04-23 13:59 | 42.07420 | 8.27254 | 12770 ft | 402 kts | 134° |
| 2026-04-23 14:00 | 42.05360 | 8.29761 | 12286 ft | 395 kts | 134° |
| 2026-04-23 14:00 | 42.03349 | 8.32203 | 11895 ft | 385 kts | 134° |
| 2026-04-23 14:00 | 42.01397 | 8.34572 | 11640 ft | 371 kts | 134° |
| 2026-04-23 14:00 | 41.99516 | 8.36849 | 11409 ft | 359 kts | 134° |
| 2026-04-23 14:01 | 41.97694 | 8.39058 | 11092 ft | 350 kts | 134° |
| 2026-04-23 14:01 | 41.95857 | 8.41138 | 10899 ft | 341 kts | 143° |
| 2026-04-23 14:01 | 41.93702 | 8.42306 | 10720 ft | 336 kts | 167° |
| 2026-04-23 14:01 | 41.91400 | 8.42405 | 10583 ft | 327 kts | 181° |
| 2026-04-23 14:02 | 41.89163 | 8.42207 | 10437 ft | 317 kts | 182° |
| 2026-04-23 14:02 | 41.86976 | 8.41995 | 10281 ft | 306 kts | 181° |
| 2026-04-23 14:02 | 41.84900 | 8.41806 | 10157 ft | 296 kts | 181° |
| 2026-04-23 14:02 | 41.82852 | 8.41634 | 9876 ft | 294 kts | 181° |
| 2026-04-23 14:03 | 41.80835 | 8.41477 | 9547 ft | 294 kts | 181° |
| 2026-04-23 14:03 | 41.78785 | 8.41321 | 9203 ft | 292 kts | 181° |
| 2026-04-23 14:03 | 41.76775 | 8.41169 | 8866 ft | 290 kts | 181° |
| 2026-04-23 14:03 | 41.74759 | 8.41017 | 8576 ft | 289 kts | 181° |
| 2026-04-23 14:04 | 41.72749 | 8.40866 | 8257 ft | 287 kts | 181° |
| 2026-04-23 14:04 | 41.70770 | 8.40719 | 7925 ft | 285 kts | 181° |
| 2026-04-23 14:04 | 41.68799 | 8.40571 | 7616 ft | 283 kts | 181° |
| 2026-04-23 14:04 | 41.66846 | 8.40461 | 7297 ft | 280 kts | 175° |
| 2026-04-23 14:05 | 41.65022 | 8.41179 | 6958 ft | 271 kts | 142° |
| 2026-04-23 14:05 | 41.63781 | 8.42945 | 6639 ft | 262 kts | 116° |
| 2026-04-23 14:05 | 41.62937 | 8.45099 | 6343 ft | 259 kts | 114° |
| 2026-04-23 14:05 | 41.62319 | 8.47326 | 5982 ft | 254 kts | 92° |
| 2026-04-23 14:06 | 41.62525 | 8.49614 | 5652 ft | 248 kts | 66° |
| 2026-04-23 14:06 | 41.63406 | 8.51567 | 5370 ft | 243 kts | 53° |
| 2026-04-23 14:06 | 41.64368 | 8.53340 | 5345 ft | 229 kts | 53° |
| 2026-04-23 14:06 | 41.65263 | 8.55016 | 5332 ft | 215 kts | 54° |
| 2026-04-23 14:07 | 41.66093 | 8.56588 | 5305 ft | 202 kts | 54° |
| 2026-04-23 14:07 | 41.67675 | 8.59601 | 5029 ft | 193 kts | 54° |
| 2026-04-23 14:07 | 41.68443 | 8.61068 | 4732 ft | 189 kts | 54° |
| 2026-04-23 14:08 | 41.69178 | 8.62474 | 4476 ft | 184 kts | 54° |
| 2026-04-23 14:08 | 41.69902 | 8.63860 | 4235 ft | 177 kts | 54° |
| 2026-04-23 14:08 | 41.70590 | 8.65179 | 4024 ft | 170 kts | 54° |
| 2026-04-23 14:08 | 41.71332 | 8.66345 | 3904 ft | 156 kts | 45° |
| 2026-04-23 14:09 | 41.72121 | 8.67240 | 3847 ft | 147 kts | 36° |
| 2026-04-23 14:09 | 41.72992 | 8.67988 | 3814 ft | 148 kts | 31° |
| 2026-04-23 14:09 | 41.73899 | 8.68637 | 3688 ft | 149 kts | 28° |
| 2026-04-23 14:09 | 41.74826 | 8.69243 | 3496 ft | 147 kts | 27° |
| 2026-04-23 14:10 | 41.75734 | 8.69820 | 3278 ft | 144 kts | 27° |
| 2026-04-23 14:10 | 41.76642 | 8.70393 | 3077 ft | 143 kts | 26° |
| 2026-04-23 14:10 | 41.77548 | 8.70962 | 2878 ft | 143 kts | 26° |
| 2026-04-23 14:10 | 41.78439 | 8.71521 | 2679 ft | 142 kts | 26° |
| 2026-04-23 14:11 | 41.79337 | 8.72083 | 2488 ft | 142 kts | 26° |
| 2026-04-23 14:11 | 41.80239 | 8.72648 | 2300 ft | 142 kts | 26° |
| 2026-04-23 14:11 | 41.81132 | 8.73208 | 2117 ft | 141 kts | 26° |
| 2026-04-23 14:11 | 41.82024 | 8.73765 | 1941 ft | 141 kts | 26° |
| 2026-04-23 14:12 | 41.82904 | 8.74316 | 1764 ft | 141 kts | 26° |
| 2026-04-23 14:12 | 41.83797 | 8.74875 | 1581 ft | 140 kts | 26° |
| 2026-04-23 14:12 | 41.84676 | 8.75425 | 1400 ft | 140 kts | 25° |
| 2026-04-23 14:12 | 41.85557 | 8.75977 | 1218 ft | 140 kts | 25° |
| 2026-04-23 14:13 | 41.86437 | 8.76528 | 1039 ft | 140 kts | 24° |
| 2026-04-23 14:13 | 41.87331 | 8.77087 | 858 ft | 141 kts | 24° |
| 2026-04-23 14:13 | 41.88227 | 8.77648 | 671 ft | 142 kts | 24° |
| 2026-04-23 14:13 | 41.89128 | 8.78212 | 484 ft | 144 kts | 23° |
| 2026-04-23 14:14 | 41.90038 | 8.78783 | 295 ft | 146 kts | 22° |
| 2026-04-23 14:14 | 41.90972 | 8.79363 | 109 ft | 147 kts | 22° |
| 2026-04-23 14:14 | 41.91878 | 8.79919 | 34 ft | 119 kts | 23° |
| 2026-04-23 14:14 | 41.92352 | 8.80220 | 34 ft | 32 kts | 27° |
| 2026-04-23 14:15 | 41.92548 | 8.80341 | 36 ft | 30 kts | 25° |
| 2026-04-23 14:15 | 41.92714 | 8.80445 | 37 ft | 19 kts | 14° |
| 2026-04-23 14:15 | 41.92787 | 8.80388 | 37 ft | 10 kts | 297° |
| 2026-04-23 14:15 | 41.92819 | 8.80298 | 37 ft | 10 kts | 295° |
| 2026-04-23 14:16 | 41.92809 | 8.80210 | 36 ft | 10 kts | 233° |
| 2026-04-23 14:16 | 41.92755 | 8.80150 | 36 ft | 10 kts | 212° |
| 2026-04-23 14:16 | 41.92692 | 8.80104 | 35 ft | 10 kts | 206° |
| 2026-04-23 14:16 | 41.92626 | 8.80062 | 35 ft | 10 kts | 206° |
| 2026-04-23 14:17 | 41.92559 | 8.80019 | 34 ft | 10 kts | 205° |
| 2026-04-23 14:17 | 41.92489 | 8.79975 | 34 ft | 11 kts | 205° |
| 2026-04-23 14:17 | 41.92415 | 8.79929 | 34 ft | 11 kts | 205° |
| 2026-04-23 14:17 | 41.92339 | 8.79882 | 34 ft | 12 kts | 205° |
| 2026-04-23 14:18 | 41.92262 | 8.79834 | 34 ft | 12 kts | 204° |
| 2026-04-23 14:18 | 41.92182 | 8.79785 | 34 ft | 12 kts | 205° |
| 2026-04-23 14:18 | 41.92096 | 8.79733 | 34 ft | 14 kts | 204° |
| 2026-04-23 14:18 | 41.92003 | 8.79676 | 34 ft | 15 kts | 205° |
| 2026-04-23 14:19 | 41.91905 | 8.79614 | 33 ft | 15 kts | 205° |
| 2026-04-23 14:19 | 41.91809 | 8.79553 | 34 ft | 15 kts | 206° |
| 2026-04-23 14:19 | 41.91724 | 8.79494 | 34 ft | 8 kts | 237° |
| 2026-04-23 14:19 | 41.91747 | 8.79439 | 34 ft | 4 kts | 341° |
| 2026-04-23 14:20 | 41.91758 | 8.79434 | 34 ft | 0 kts | 342° |